Time;durP1;ratioP1;P1;durP2;ratioP2;P2;SDS_P1;SDS_P2;PMS_P1;PMS_P2;Temp;Humidity;BMP_temperature;BMP_pressure;BME280_temperature;BME280_humidity;BME280_pressure;Samples;Min_cycle;Max_cycle;Signal;HPM_P1;HPM_P2
2022/06/22 00:02:13;;;;;;;9.63;4.03;;;18.60;99.90;;;;;;21075397;28;20445;-78
2022/06/22 00:12:30;;;;;;;11.75;4.25;;;18.80;99.90;;;;;;21074404;28;20066;-77
2022/06/22 00:22:49;;;;;;;10.88;4.30;;;18.70;99.90;;;;;;21074447;28;20044;-77
2022/06/22 00:33:17;;;;;;;10.35;4.65;;;18.40;99.90;;;;;;21091000;28;20498;-77
2022/06/22 00:43:19;;;;;;;9.18;5.22;;;18.50;99.90;;;;;;21089974;28;20036;-77
2022/06/22 00:53:24;;;;;;;10.02;4.68;;;18.30;99.90;;;;;;21071967;28;20042;-78
2022/06/22 01:04:09;;;;;;;8.88;4.43;;;18.20;99.90;;;;;;21088807;28;20133;-77
2022/06/22 01:14:26;;;;;;;16.48;5.78;;;18.10;99.90;;;;;;21094955;28;20043;-78
2022/06/22 01:24:42;;;;;;;20.02;7.18;;;18.00;99.90;;;;;;21069937;28;20044;-78
2022/06/22 01:34:47;;;;;;;11.73;5.30;;;18.00;99.90;;;;;;21052209;28;20522;-78
2022/06/22 01:45:25;;;;;;;11.30;6.70;;;18.10;99.90;;;;;;21085497;28;20036;-77
2022/06/22 01:55:44;;;;;;;13.05;6.53;;;18.00;99.90;;;;;;21083255;28;20044;-78
2022/06/22 02:06:02;;;;;;;10.27;5.07;;;18.00;99.90;;;;;;21064704;28;20040;-78
2022/06/22 02:16:20;;;;;;;8.88;4.80;;;18.10;99.90;;;;;;21082050;28;20197;-78
2022/06/22 02:26:26;;;;;;;10.45;5.28;;;18.20;99.90;;;;;;21063220;28;20054;-78
2022/06/22 02:36:31;;;;;;;14.10;4.97;;;18.20;99.90;;;;;;21062341;28;20502;-78
2022/06/22 02:46:38;;;;;;;11.38;4.50;;;18.20;99.90;;;;;;21080029;28;20115;-77
2022/06/22 02:56:41;;;;;;;7.35;4.75;;;18.10;99.90;;;;;;21078756;28;20036;-77
2022/06/22 03:06:47;;;;;;;13.40;4.95;;;18.10;99.90;;;;;;21078006;28;20044;-78
2022/06/22 03:16:56;;;;;;;10.25;5.75;;;18.20;99.90;;;;;;21058815;28;20051;-77
2022/06/22 03:27:03;;;;;;;11.20;5.30;;;17.90;99.90;;;;;;21058679;28;20032;-77
2022/06/22 03:37:11;;;;;;;11.27;5.60;;;17.90;99.90;;;;;;21079242;28;20103;-77
2022/06/22 03:47:31;;;;;;;9.63;5.47;;;17.80;99.90;;;;;;21105966;28;20076;-77
2022/06/22 03:57:38;;;;;;;13.88;5.63;;;17.80;99.90;;;;;;21096576;28;20028;-77
2022/06/22 04:07:40;;;;;;;11.85;5.80;;;17.90;99.90;;;;;;21087507;28;20388;-77
2022/06/22 04:17:50;;;;;;;9.48;5.72;;;18.00;99.90;;;;;;21140712;28;20036;-77
2022/06/22 04:27:52;;;;;;;14.65;6.43;;;18.00;99.90;;;;;;21157141;28;20035;-77
2022/06/22 04:37:53;;;;;;;11.43;7.28;;;18.00;99.90;;;;;;21106423;28;20035;-76
2022/06/22 04:48:00;;;;;;;11.67;6.60;;;18.00;99.90;;;;;;21056865;28;20048;-76
2022/06/22 04:58:04;;;;;;;14.18;8.35;;;18.20;99.90;;;;;;21072245;28;20036;-78
2022/06/22 05:08:22;;;;;;;11.85;5.70;;;18.40;99.90;;;;;;21071691;28;20533;-77
2022/06/22 05:18:34;;;;;;;8.30;5.53;;;18.60;99.90;;;;;;21087013;28;20036;-75
2022/06/22 05:29:10;;;;;;;10.18;5.97;;;18.60;99.90;;;;;;21086025;28;20082;-76
2022/06/22 05:39:12;;;;;;;16.75;7.15;;;18.70;99.90;;;;;;21031131;28;20055;-76
2022/06/22 05:49:15;;;;;;;;;;;18.90;99.90;;;;;;21069097;22;20048;-75
2022/06/22 05:59:21;;;;;;;21.67;8.10;;;19.00;99.90;;;;;;21083389;28;20293;-74
2022/06/22 06:09:24;;;;;;;15.43;8.13;;;19.10;99.90;;;;;;21080758;28;20200;-75
2022/06/22 06:19:32;;;;;;;15.20;7.53;;;19.60;99.90;;;;;;21082228;28;20032;-76
2022/06/22 06:30:00;;;;;;;14.45;8.32;;;19.80;99.90;;;;;;21081131;28;20061;-76
2022/06/22 06:40:01;;;;;;;25.00;8.73;;;19.90;99.90;;;;;;21072275;28;20044;-77
2022/06/22 06:50:06;;;;;;;24.10;10.07;;;19.90;99.90;;;;;;21061637;28;20058;-75
2022/06/22 07:00:12;;;;;;;19.70;9.32;;;19.70;99.90;;;;;;21079260;28;20047;-75
2022/06/22 07:10:34;;;;;;;19.60;9.15;;;19.60;99.90;;;;;;21078249;28;20044;-75
2022/06/22 07:20:42;;;;;;;17.90;9.50;;;19.50;99.90;;;;;;21077504;28;20039;-75
2022/06/22 07:31:00;;;;;;;17.15;8.93;;;19.50;99.90;;;;;;21112069;28;20101;-79
2022/06/22 07:41:19;;;;;;;21.92;9.30;;;19.60;99.90;;;;;;21109701;28;20032;-79
2022/06/22 07:51:30;;;;;;;21.95;9.45;;;19.50;99.90;;;;;;21065122;28;20033;-79
2022/06/22 08:01:42;;;;;;;14.97;8.67;;;19.80;99.90;;;;;;21010431;28;20125;-79
2022/06/22 08:12:01;;;;;;;11.63;7.85;;;20.00;99.90;;;;;;21015836;28;20135;-79
2022/06/22 08:22:04;;;;;;;14.30;8.60;;;20.10;99.90;;;;;;21050659;28;20040;-79
2022/06/22 08:32:14;;;;;;;21.05;9.43;;;20.10;99.90;;;;;;21032327;28;20044;-79
2022/06/22 08:42:33;;;;;;;17.63;9.13;;;20.20;99.90;;;;;;21041979;28;20041;-79
2022/06/22 08:52:47;;;;;;;25.27;10.48;;;20.30;99.90;;;;;;20972515;28;20044;-79
2022/06/22 09:03:23;;;;;;;17.92;11.45;;;20.40;99.90;;;;;;21004534;28;20040;-78
2022/06/22 09:14:01;;;;;;;22.05;10.23;;;20.10;99.90;;;;;;20986576;28;20044;-78
2022/06/22 09:24:12;;;;;;;18.95;10.38;;;20.30;99.90;;;;;;21007524;28;20165;-77
2022/06/22 09:34:21;;;;;;;20.42;10.43;;;20.40;99.90;;;;;;21005976;28;20043;-78
2022/06/22 09:44:39;;;;;;;15.48;10.07;;;20.40;99.90;;;;;;21004465;28;20048;-78
2022/06/22 10:05:52;;;;;;;24.65;12.65;;;21.40;99.90;;;;;;21000870;28;20048;-78
2022/06/22 10:16:11;;;;;;;25.23;10.35;;;21.90;99.90;;;;;;20991327;28;20036;-78
2022/06/22 10:26:42;;;;;;;22.88;9.80;;;21.90;99.90;;;;;;21000636;28;20039;-78
2022/06/22 10:37:04;;;;;;;15.80;5.93;;;22.10;99.90;;;;;;20998716;28;20040;-78
2022/06/22 10:47:23;;;;;;;18.48;6.88;;;21.80;99.90;;;;;;20997338;28;20722;-77
2022/06/22 10:57:49;;;;;;;16.88;6.25;;;21.80;99.90;;;;;;20978725;28;20507;-79
2022/06/22 11:08:05;;;;;;;15.48;5.85;;;22.30;99.90;;;;;;20977929;28;20403;-78
2022/06/22 11:18:25;;;;;;;18.67;5.78;;;22.30;99.90;;;;;;20995958;28;20045;-78
2022/06/22 11:39:32;;;;;;;13.75;6.28;;;22.60;99.90;;;;;;20978275;28;20135;-78
2022/06/22 11:49:40;;;;;;;15.23;6.20;;;22.60;99.90;;;;;;20993509;28;20422;-78
2022/06/22 11:59:59;;;;;;;19.83;6.97;;;22.50;99.90;;;;;;20993032;28;20037;-77
2022/06/22 12:10:00;;;;;;;23.83;7.32;;;22.80;99.90;;;;;;21003282;28;20029;-77
2022/06/22 12:20:25;;;;;;;18.67;7.93;;;22.40;99.90;;;;;;21042065;28;20405;-77
2022/06/22 12:30:29;;;;;;;22.33;7.93;;;21.70;99.90;;;;;;21074025;28;20048;-76
2022/06/22 12:40:58;;;;;;;18.23;7.13;;;21.90;99.90;;;;;;21074542;28;20511;-77
2022/06/22 12:51:43;;;;;;;23.10;6.72;;;22.30;99.90;;;;;;21054971;28;20047;-77
2022/06/22 13:01:45;;;;;;;18.50;6.20;;;23.00;99.90;;;;;;20732762;28;20108;-77
2022/06/22 13:11:48;;;;;;;19.95;6.45;;;22.90;99.90;;;;;;20732307;28;20392;-77
2022/06/22 13:22:18;;;;;;;23.48;6.18;;;22.80;99.90;;;;;;20716879;28;20447;-78
2022/06/22 13:32:22;;;;;;;21.08;5.75;;;22.80;99.90;;;;;;21008843;28;20127;-79
2022/06/22 13:42:42;;;;;;;14.70;5.65;;;23.40;99.90;;;;;;21071565;28;20044;-76
2022/06/22 13:52:47;;;;;;;18.65;6.35;;;23.60;99.90;;;;;;21085185;28;20039;-77
2022/06/22 14:03:00;;;;;;;19.48;5.70;;;24.00;99.90;;;;;;21083666;28;20036;-77
2022/06/22 14:13:31;;;;;;;18.60;5.47;;;25.40;99.90;;;;;;21083327;28;20044;-76
2022/06/22 14:23:36;;;;;;;18.37;5.57;;;25.50;99.90;;;;;;21014569;28;20041;-76
2022/06/22 14:33:55;;;;;;;18.65;4.78;;;25.50;99.90;;;;;;20997842;28;20037;-75
2022/06/22 14:44:17;;;;;;;19.73;4.85;;;26.70;99.90;;;;;;20961101;28;20131;-76
2022/06/22 14:54:32;;;;;;;21.05;5.07;;;27.20;99.90;;;;;;20995820;28;20040;-76
2022/06/22 15:05:03;;;;;;;21.42;5.00;;;25.90;99.90;;;;;;21054436;28;20040;-76
2022/06/22 15:15:10;;;;;;;23.93;5.60;;;25.00;99.90;;;;;;20975858;28;20044;-77
2022/06/22 15:25:38;;;;;;;18.77;4.45;;;24.60;99.90;;;;;;21032944;28;20547;-77
2022/06/22 15:35:48;;;;;;;16.75;4.53;;;24.40;99.90;;;;;;21065212;28;20576;-77
2022/06/22 15:46:04;;;;;;;20.88;5.50;;;24.10;99.90;;;;;;21042696;28;20048;-76
2022/06/22 15:56:16;;;;;;;21.63;4.18;;;23.50;99.90;;;;;;21027410;28;20116;-75
2022/06/22 16:06:28;;;;;;;17.63;4.55;;;23.30;99.90;;;;;;21044419;28;20586;-74
2022/06/22 16:16:47;;;;;;;;;;;23.50;99.90;;;;;;21020023;28;20036;-74
2022/06/22 16:26:57;;;;;;;23.70;5.47;;;23.10;99.90;;;;;;21054157;28;20018;-75
2022/06/22 16:37:08;;;;;;;21.45;4.30;;;23.10;99.90;;;;;;21009639;28;20047;-75
2022/06/22 16:47:11;;;;;;;18.33;3.95;;;22.50;99.90;;;;;;21062199;28;20048;-76
2022/06/22 16:57:17;;;;;;;24.08;5.25;;;22.20;99.90;;;;;;21100847;28;20430;-74
2022/06/22 17:07:32;;;;;;;16.40;3.97;;;22.10;99.90;;;;;;21138955;28;20464;-74
2022/06/22 17:18:04;;;;;;;21.45;5.57;;;22.00;99.90;;;;;;21031750;28;20039;-74
2022/06/22 17:28:52;;;;;;;18.03;4.87;;;22.00;99.90;;;;;;20957750;28;20047;-76
2022/06/22 17:38:53;;;;;;;25.33;4.72;;;21.70;99.90;;;;;;20751575;28;20056;-75
2022/06/22 17:49:01;;;;;;;21.93;4.63;;;21.50;99.90;;;;;;21005283;28;20036;-77
2022/06/22 17:59:13;;;;;;;23.42;5.00;;;21.30;99.90;;;;;;21037924;28;20100;-75
2022/06/22 18:09:18;;;;;;;17.92;5.30;;;21.10;99.90;;;;;;21012114;28;20043;-78
2022/06/22 18:19:33;;;;;;;17.08;5.80;;;21.00;99.90;;;;;;20996456;28;20039;-78
2022/06/22 18:29:39;;;;;;;16.40;5.18;;;20.40;99.90;;;;;;20995989;28;20032;-78
2022/06/22 18:50:28;;;;;;;21.60;5.93;;;20.20;99.90;;;;;;20996170;28;20044;-78
2022/06/22 19:00:29;;;;;;;14.50;3.88;;;20.10;99.90;;;;;;20995994;28;20108;-79
2022/06/22 19:10:33;;;;;;;13.35;3.47;;;20.10;99.90;;;;;;20994937;28;20086;-78
2022/06/22 19:20:40;;;;;;;12.95;3.45;;;20.00;99.90;;;;;;20976326;28;20380;-78
2022/06/22 19:30:53;;;;;;;7.93;2.88;;;19.70;99.90;;;;;;20993101;28;20079;-77
2022/06/22 19:41:16;;;;;;;6.63;2.08;;;19.50;99.90;;;;;;20992492;28;20511;-77
2022/06/22 19:51:38;;;;;;;8.50;1.58;;;19.40;99.90;;;;;;20991590;28;20037;-80
2022/06/22 20:01:59;;;;;;;11.68;2.10;;;19.00;99.90;;;;;;20991396;28;20048;-78
2022/06/22 20:12:14;;;;;;;5.82;1.60;;;18.80;99.90;;;;;;20991029;28;20403;-77
2022/06/22 20:22:34;;;;;;;4.88;1.42;;;18.40;99.90;;;;;;21036159;28;20040;-77
2022/06/22 20:32:38;;;;;;;7.03;1.88;;;18.20;99.90;;;;;;21052351;28;20575;-77
2022/06/22 20:42:57;;;;;;;6.05;1.33;;;18.00;99.90;;;;;;21040355;28;20049;-77
2022/06/22 20:53:01;;;;;;;5.93;1.27;;;18.00;99.90;;;;;;21055210;28;20048;-77
2022/06/22 21:03:03;;;;;;;6.13;1.30;;;17.90;99.90;;;;;;21105857;28;20143;-76
2022/06/22 21:13:15;;;;;;;6.63;1.50;;;17.40;99.90;;;;;;21132551;28;20126;-77
2022/06/22 21:23:19;;;;;;;2.83;1.08;;;17.60;99.90;;;;;;21093812;28;20134;-77
2022/06/22 21:33:20;;;;;;;5.68;1.90;;;17.20;99.90;;;;;;21081830;28;20083;-77
2022/06/22 21:43:45;;;;;;;6.90;2.20;;;16.80;99.90;;;;;;21053534;28;20044;-77
2022/06/22 21:54:26;;;;;;;7.50;1.80;;;16.50;99.90;;;;;;21037517;28;20028;-76
2022/06/22 22:04:34;;;;;;;7.68;2.30;;;16.70;99.90;;;;;;21007192;28;20124;-77
2022/06/22 22:14:59;;;;;;;7.43;3.00;;;17.00;99.90;;;;;;21000845;28;20090;-77
2022/06/22 22:25:06;;;;;;;6.95;2.95;;;17.20;99.90;;;;;;20981329;28;20048;-76
2022/06/22 22:35:21;;;;;;;11.10;4.78;;;17.00;99.90;;;;;;20998424;28;20041;-76
2022/06/22 22:45:25;;;;;;;9.18;2.75;;;16.90;99.90;;;;;;20997327;28;20131;-77
2022/06/22 22:55:32;;;;;;;12.15;2.50;;;17.20;99.90;;;;;;20996229;28;20044;-77
2022/06/22 23:05:35;;;;;;;9.50;2.40;;;17.30;99.90;;;;;;20995085;28;20041;-78
2022/06/22 23:15:37;;;;;;;10.13;2.70;;;17.40;99.90;;;;;;20994406;28;20040;-77
2022/06/22 23:25:43;;;;;;;;;;;17.40;99.90;;;;;;20994368;28;20068;-78
2022/06/22 23:35:46;;;;;;;20.45;2.97;;;17.20;99.90;;;;;;20993710;28;19916;-77
2022/06/22 23:45:48;;;;;;;14.57;3.33;;;16.90;99.90;;;;;;20992689;28;20044;-76
2022/06/22 23:55:50;;;;;;;10.90;3.10;;;16.60;99.90;;;;;;20974189;28;20036;-78
